Time;durP1;ratioP1;P1;durP2;ratioP2;P2;SDS_P1;SDS_P2;PMS_P1;PMS_P2;Temp;Humidity;BMP_temperature;BMP_pressure;BME280_temperature;BME280_humidity;BME280_pressure;Samples;Min_cycle;Max_cycle;Signal;HPM_P1;HPM_P2
2023/03/12 00:02:07;;;;;;;17.40;11.05;;;-0.30;99.90;;;;;;5068923;28;20402;-87
2023/03/12 00:04:34;;;;;;;14.33;9.10;;;-0.20;99.90;;;;;;5067620;28;20400;-87
2023/03/12 00:07:01;;;;;;;14.07;10.27;;;-0.30;99.90;;;;;;5067664;28;20441;-87
2023/03/12 00:09:27;;;;;;;11.00;8.32;;;-0.30;99.90;;;;;;5067972;28;20935;-88
2023/03/12 00:11:53;;;;;;;10.60;8.03;;;-0.30;99.90;;;;;;5068186;28;20426;-88
2023/03/12 00:14:19;;;;;;;11.17;8.27;;;-0.30;99.90;;;;;;5086006;28;20410;-88
2023/03/12 00:16:45;;;;;;;12.57;8.03;;;-0.30;99.90;;;;;;5085090;28;20461;-89
2023/03/12 00:19:12;;;;;;;12.10;7.78;;;-0.30;99.90;;;;;;5069149;28;20398;-88
2023/03/12 00:21:38;;;;;;;11.38;7.93;;;-0.30;99.90;;;;;;5085296;28;21022;-88
2023/03/12 00:24:04;;;;;;;12.10;7.32;;;-0.30;99.90;;;;;;5068698;28;20401;-88
2023/03/12 00:26:30;;;;;;;8.20;6.55;;;-0.40;99.90;;;;;;5085244;28;20405;-87
2023/03/12 00:28:56;;;;;;;11.38;7.72;;;-0.40;99.90;;;;;;5067944;28;20426;-88
2023/03/12 00:31:27;;;;;;;10.90;7.05;;;-0.40;99.90;;;;;;5068490;28;20398;-88
2023/03/12 00:33:54;;;;;;;9.97;6.80;;;-0.40;99.90;;;;;;5067658;28;20417;-88
2023/03/12 00:36:23;;;;;;;9.93;7.23;;;-0.40;99.90;;;;;;5084825;28;20491;-88
2023/03/12 00:38:50;;;;;;;10.15;6.90;;;-0.40;99.90;;;;;;5084571;28;20967;-87
2023/03/12 00:41:18;;;;;;;9.82;7.38;;;-0.40;99.90;;;;;;5068667;28;20509;-89
2023/03/12 00:43:44;;;;;;;12.13;7.25;;;-0.50;99.90;;;;;;5068565;28;20777;-89
2023/03/12 00:46:09;;;;;;;9.50;6.03;;;-0.50;99.90;;;;;;5067934;28;20398;-89
2023/03/12 00:48:35;;;;;;;9.82;7.00;;;-0.50;99.90;;;;;;5085460;28;20525;-89
2023/03/12 00:51:01;;;;;;;10.23;6.97;;;-0.30;99.90;;;;;;5067718;28;20394;-89
2023/03/12 00:53:26;;;;;;;10.07;7.40;;;-0.50;99.90;;;;;;5085471;28;20394;-87
2023/03/12 00:55:52;;;;;;;11.27;7.20;;;-0.50;99.90;;;;;;5067829;28;20428;-89
2023/03/12 00:58:17;;;;;;;9.85;6.30;;;-0.60;99.90;;;;;;5068342;28;20402;-88
2023/03/12 01:00:43;;;;;;;8.15;6.72;;;-0.60;99.90;;;;;;5084580;28;20579;-87
2023/03/12 01:03:09;;;;;;;8.40;6.47;;;-0.60;99.90;;;;;;5067885;28;20410;-87
2023/03/12 01:05:36;;;;;;;10.30;6.87;;;-0.60;99.90;;;;;;5084901;28;20390;-88
2023/03/12 01:08:03;;;;;;;8.93;6.43;;;-0.60;99.90;;;;;;5066872;28;20434;-86
2023/03/12 01:10:29;;;;;;;10.30;6.63;;;-0.60;99.90;;;;;;5068242;28;20402;-88
2023/03/12 01:12:54;;;;;;;8.95;6.90;;;-0.60;99.90;;;;;;5067497;28;20398;-88
2023/03/12 01:15:21;;;;;;;9.75;6.60;;;-0.60;99.90;;;;;;5068166;28;20394;-87
2023/03/12 01:17:46;;;;;;;12.35;7.95;;;-0.70;99.90;;;;;;5067480;28;20401;-88
2023/03/12 01:20:12;;;;;;;11.85;8.88;;;-0.60;99.90;;;;;;5084709;28;20489;-87
2023/03/12 01:22:38;;;;;;;10.97;8.43;;;-0.60;99.90;;;;;;5067699;28;20414;-86
2023/03/12 01:25:04;;;;;;;11.52;8.23;;;-0.60;99.90;;;;;;5084385;28;20825;-88
2023/03/12 01:27:29;;;;;;;11.80;7.30;;;-0.60;99.90;;;;;;5084320;28;20494;-87
2023/03/12 01:29:55;;;;;;;10.25;7.68;;;-0.60;99.90;;;;;;5067099;28;20481;-87
2023/03/12 01:32:21;;;;;;;10.02;7.75;;;-0.40;99.90;;;;;;5067585;28;20448;-87
2023/03/12 01:34:46;;;;;;;10.95;7.28;;;-0.30;99.90;;;;;;5066845;28;20402;-86
2023/03/12 01:37:12;;;;;;;11.07;7.70;;;-0.30;99.90;;;;;;5067941;28;20486;-87
2023/03/12 01:39:38;;;;;;;10.87;7.30;;;-0.40;99.90;;;;;;5067385;28;20402;-87
2023/03/12 01:42:04;;;;;;;12.20;8.38;;;-0.30;99.90;;;;;;5067337;28;20409;-87
2023/03/12 01:44:29;;;;;;;11.30;8.20;;;-0.30;99.90;;;;;;5084471;28;20840;-88
2023/03/12 01:46:55;;;;;;;10.05;7.68;;;-0.20;99.90;;;;;;5067227;28;20493;-87
2023/03/12 01:49:28;;;;;;;10.88;7.40;;;-0.20;99.90;;;;;;5071333;28;20418;-86
2023/03/12 01:52:05;;;;;;;9.20;6.95;;;-0.20;99.90;;;;;;5087789;28;20406;-86
2023/03/12 01:54:38;;;;;;;9.70;7.40;;;-0.10;99.90;;;;;;5071765;28;20448;-87
2023/03/12 01:57:07;;;;;;;10.98;7.30;;;-0.10;99.90;;;;;;5070575;28;20405;-87
2023/03/12 01:59:47;;;;;;;11.50;6.97;;;0.00;99.90;;;;;;5070617;28;20402;-88
2023/03/12 02:02:17;;;;;;;9.60;7.10;;;0.10;99.90;;;;;;5070957;28;20408;-88
2023/03/12 02:04:44;;;;;;;10.02;6.50;;;0.00;99.90;;;;;;5087257;28;20402;-87
2023/03/12 02:07:12;;;;;;;10.02;6.85;;;0.10;99.90;;;;;;5087486;28;20445;-86
2023/03/12 02:09:48;;;;;;;10.18;6.90;;;0.10;99.90;;;;;;5070065;28;20441;-87
2023/03/12 02:12:14;;;;;;;10.93;7.10;;;0.10;99.90;;;;;;5087506;28;20421;-87
2023/03/12 02:14:40;;;;;;;12.40;7.35;;;0.10;99.90;;;;;;5087252;28;20398;-86
2023/03/12 02:17:07;;;;;;;9.65;7.00;;;0.20;99.90;;;;;;5069962;28;20769;-87
2023/03/12 02:20:00;;;;;;;10.68;7.03;;;0.30;99.90;;;;;;5087623;28;20409;-87
2023/03/12 02:22:27;;;;;;;12.13;7.40;;;0.30;99.90;;;;;;5069757;28;20409;-87
2023/03/12 02:25:02;;;;;;;10.27;6.80;;;0.40;99.90;;;;;;5070526;28;20402;-87
2023/03/12 02:27:34;;;;;;;11.40;7.00;;;0.40;99.90;;;;;;5087087;28;20777;-87
2023/03/12 02:30:02;;;;;;;10.82;6.82;;;0.40;99.90;;;;;;5069910;28;20406;-87
2023/03/12 02:32:32;;;;;;;12.18;7.78;;;0.40;99.90;;;;;;5087211;28;20402;-88
2023/03/12 02:34:59;;;;;;;10.40;7.40;;;0.50;99.90;;;;;;5069148;28;20997;-88
2023/03/12 02:37:25;;;;;;;10.32;6.88;;;0.50;99.90;;;;;;5070477;28;20402;-87
2023/03/12 02:40:40;;;;;;;11.52;7.32;;;0.50;99.90;;;;;;5069110;28;20409;-87
2023/03/12 02:43:09;;;;;;;10.30;7.60;;;0.50;99.90;;;;;;5008323;28;20530;-87
2023/03/12 02:45:36;;;;;;;11.43;7.32;;;0.50;99.90;;;;;;5009002;28;20411;-86
2023/03/12 02:48:03;;;;;;;10.25;7.15;;;0.50;99.90;;;;;;5043713;28;20796;-88
2023/03/12 02:50:28;;;;;;;11.20;7.25;;;0.60;99.90;;;;;;5086915;28;20395;-88
2023/03/12 02:52:54;;;;;;;9.77;6.68;;;0.60;99.90;;;;;;5085698;28;20466;-86
2023/03/12 02:55:20;;;;;;;13.10;7.17;;;0.60;99.90;;;;;;5069695;28;20405;-88
2023/03/12 02:57:45;;;;;;;10.23;6.53;;;0.60;99.90;;;;;;5069690;28;20897;-86
2023/03/12 03:00:13;;;;;;;9.07;6.32;;;0.70;99.90;;;;;;5068260;28;20456;-87
2023/03/12 03:02:39;;;;;;;8.32;6.07;;;0.70;99.90;;;;;;5086662;28;20437;-88
2023/03/12 03:05:06;;;;;;;8.98;5.78;;;0.70;99.90;;;;;;5085218;28;20459;-88
2023/03/12 03:07:31;;;;;;;10.05;5.80;;;0.70;99.90;;;;;;5068774;28;20432;-87
2023/03/12 03:10:02;;;;;;;9.10;5.50;;;0.70;99.90;;;;;;5068238;28;20905;-87
2023/03/12 03:12:32;;;;;;;7.43;5.72;;;0.80;99.90;;;;;;5069725;28;20901;-87
2023/03/12 03:14:57;;;;;;;9.48;5.68;;;0.80;99.90;;;;;;5069064;28;20594;-86
2023/03/12 03:17:23;;;;;;;10.48;5.72;;;0.80;99.90;;;;;;5069423;28;20469;-88
2023/03/12 03:19:50;;;;;;;8.57;5.28;;;0.80;99.90;;;;;;5069273;28;20780;-88
2023/03/12 03:22:16;;;;;;;9.15;4.88;;;0.90;99.90;;;;;;5068903;28;20753;-88
2023/03/12 03:24:42;;;;;;;8.32;4.90;;;0.80;99.90;;;;;;5069804;28;20413;-87
2023/03/12 03:27:08;;;;;;;9.60;5.73;;;0.90;99.90;;;;;;5068214;28;20406;-88
2023/03/12 03:29:33;;;;;;;8.73;4.93;;;0.90;99.90;;;;;;5069368;28;20437;-86
2023/03/12 03:31:59;;;;;;;7.60;4.78;;;1.00;99.90;;;;;;5068628;28;20814;-86
2023/03/12 03:34:25;;;;;;;6.68;5.03;;;0.90;99.90;;;;;;5069085;28;20434;-87
2023/03/12 03:36:50;;;;;;;7.07;4.78;;;0.90;99.90;;;;;;5068344;28;20398;-87
2023/03/12 03:39:16;;;;;;;6.60;4.73;;;0.90;99.90;;;;;;5068153;28;20402;-88
2023/03/12 03:41:41;;;;;;;9.73;4.57;;;1.10;99.90;;;;;;5069043;28;20406;-87
2023/03/12 03:44:07;;;;;;;5.70;4.30;;;1.00;99.90;;;;;;5067904;28;20913;-89
2023/03/12 03:46:36;;;;;;;4.97;4.10;;;1.00;99.90;;;;;;5069394;28;20762;-87
2023/03/12 03:49:01;;;;;;;7.93;4.20;;;1.00;99.90;;;;;;5067943;28;20433;-87
2023/03/12 03:51:27;;;;;;;9.10;4.30;;;1.00;99.90;;;;;;5068910;28;20405;-87
2023/03/12 03:53:53;;;;;;;7.27;3.87;;;1.00;99.90;;;;;;5067943;28;20401;-87
2023/03/12 03:56:19;;;;;;;6.70;3.97;;;1.00;99.90;;;;;;5085115;28;20402;-87
2023/03/12 03:58:44;;;;;;;6.00;4.13;;;1.00;99.90;;;;;;5085603;28;20417;-88
2023/03/12 04:01:13;;;;;;;6.57;3.70;;;1.10;99.90;;;;;;5084431;28;20422;-86
2023/03/12 04:03:38;;;;;;;10.30;3.65;;;1.10;99.90;;;;;;5068606;28;20398;-87
2023/03/12 04:06:05;;;;;;;6.27;3.77;;;1.10;99.90;;;;;;5067612;28;20417;-88
2023/03/12 04:08:34;;;;;;;6.80;3.38;;;1.10;99.90;;;;;;5085146;28;20426;-88
2023/03/12 04:11:10;;;;;;;6.68;3.60;;;1.00;99.90;;;;;;5083456;28;20413;-86
2023/03/12 04:13:36;;;;;;;7.33;3.77;;;1.10;99.90;;;;;;5084877;28;20405;-88
2023/03/12 04:16:02;;;;;;;5.65;3.70;;;1.10;99.90;;;;;;5068460;28;20398;-87
2023/03/12 04:18:28;;;;;;;6.95;3.67;;;1.20;99.90;;;;;;5067504;28;20488;-87
2023/03/12 04:20:54;;;;;;;6.00;3.45;;;1.40;99.90;;;;;;5085239;28;20835;-87
2023/03/12 04:23:19;;;;;;;5.45;3.17;;;1.20;99.90;;;;;;5067659;28;20412;-87
2023/03/12 04:25:45;;;;;;;7.27;3.53;;;1.20;99.90;;;;;;5068091;28;20484;-88
2023/03/12 04:28:10;;;;;;;5.93;3.80;;;1.20;99.90;;;;;;5084323;28;20422;-87
2023/03/12 04:30:37;;;;;;;9.00;3.83;;;1.20;99.90;;;;;;5085210;28;20989;-87
2023/03/12 04:33:04;;;;;;;6.43;3.37;;;1.40;99.90;;;;;;5084600;28;20818;-86
2023/03/12 04:35:30;;;;;;;6.75;3.60;;;1.40;99.90;;;;;;5067768;28;20828;-87
2023/03/12 04:37:55;;;;;;;8.93;3.75;;;1.30;99.90;;;;;;5067638;28;20485;-88
2023/03/12 04:40:21;;;;;;;7.93;3.50;;;1.30;99.90;;;;;;5083947;28;20806;-87
2023/03/12 04:42:47;;;;;;;8.47;3.70;;;1.30;99.90;;;;;;5085105;28;20391;-88
2023/03/12 04:45:13;;;;;;;5.82;3.00;;;1.30;99.90;;;;;;5067023;28;20861;-88
2023/03/12 04:47:39;;;;;;;7.95;3.65;;;1.30;99.90;;;;;;5084763;28;20908;-87
2023/03/12 04:50:05;;;;;;;5.47;3.10;;;1.40;99.90;;;;;;5067665;28;20420;-87
2023/03/12 04:52:30;;;;;;;6.03;2.88;;;1.40;99.90;;;;;;5067124;28;20394;-87
2023/03/12 04:54:58;;;;;;;6.20;3.07;;;1.30;99.90;;;;;;5067795;28;20451;-86
2023/03/12 04:57:23;;;;;;;5.85;3.70;;;1.30;99.90;;;;;;5083657;28;20401;-86
2023/03/12 04:59:50;;;;;;;6.43;3.42;;;1.30;99.90;;;;;;5067781;28;20414;-87
2023/03/12 05:02:15;;;;;;;7.15;3.22;;;1.30;99.90;;;;;;5084059;28;20446;-87
2023/03/12 05:04:41;;;;;;;5.35;3.53;;;1.40;99.90;;;;;;5084513;28;20493;-87
2023/03/12 05:07:07;;;;;;;6.70;2.92;;;1.30;99.90;;;;;;5083327;28;20406;-87
2023/03/12 05:09:32;;;;;;;6.28;3.42;;;1.30;99.90;;;;;;5067521;28;20811;-87
2023/03/12 05:11:58;;;;;;;6.20;3.30;;;1.40;99.90;;;;;;5084218;28;20433;-88
2023/03/12 05:14:24;;;;;;;8.40;3.30;;;1.40;99.90;;;;;;5066122;28;20427;-89
2023/03/12 05:16:49;;;;;;;5.90;3.13;;;1.40;99.90;;;;;;5067211;28;20402;-88
2023/03/12 05:19:15;;;;;;;7.53;3.38;;;1.20;99.90;;;;;;5065951;28;20398;-87
2023/03/12 05:21:41;;;;;;;6.60;3.08;;;1.40;99.90;;;;;;5068405;28;20442;-86
2023/03/12 05:24:08;;;;;;;6.32;3.42;;;1.40;99.90;;;;;;5073419;28;20754;-87
2023/03/12 05:26:34;;;;;;;7.03;3.23;;;1.40;99.90;;;;;;5091364;28;20428;-88
2023/03/12 05:29:01;;;;;;;5.87;3.13;;;1.30;99.90;;;;;;5073172;28;20443;-86
2023/03/12 05:31:27;;;;;;;8.20;3.90;;;1.40;99.90;;;;;;5091028;28;20947;-89
2023/03/12 05:33:53;;;;;;;7.87;3.87;;;1.70;99.90;;;;;;5071905;28;20497;-87
2023/03/12 05:36:19;;;;;;;7.28;3.17;;;1.50;99.90;;;;;;5081677;28;20477;-88
2023/03/12 05:38:45;;;;;;;5.43;3.00;;;1.40;99.90;;;;;;5090460;28;20437;-87
2023/03/12 05:41:21;;;;;;;6.70;3.47;;;1.40;99.90;;;;;;5073248;28;20490;-87
2023/03/12 05:43:46;;;;;;;6.40;3.10;;;1.50;99.90;;;;;;5086883;28;20415;-86
2023/03/12 05:46:13;;;;;;;6.30;3.03;;;1.50;99.90;;;;;;5092363;28;20463;-87
2023/03/12 05:48:38;;;;;;;5.68;3.25;;;1.50;99.90;;;;;;5111039;28;20439;-88
2023/03/12 05:51:04;;;;;;;5.40;3.05;;;1.90;99.90;;;;;;5111457;28;20408;-87
2023/03/12 05:53:30;;;;;;;6.93;3.03;;;1.50;99.90;;;;;;5093666;28;20751;-88
2023/03/12 05:56:05;;;;;;;6.20;3.07;;;1.50;99.90;;;;;;5083233;28;20401;-87
2023/03/12 05:58:33;;;;;;;7.25;3.40;;;1.60;99.90;;;;;;5077560;28;20465;-86
2023/03/12 06:00:59;;;;;;;6.55;3.63;;;1.60;99.90;;;;;;5094779;28;20958;-88
2023/03/12 06:03:24;;;;;;;7.35;3.85;;;1.60;99.90;;;;;;5091701;28;20440;-88
2023/03/12 06:05:53;;;;;;;7.88;3.10;;;1.60;99.90;;;;;;5074121;28;20460;-88
2023/03/12 06:08:20;;;;;;;8.10;3.53;;;1.60;99.90;;;;;;5081862;28;20588;-87
2023/03/12 06:10:46;;;;;;;6.43;3.78;;;1.60;99.90;;;;;;5085541;28;20400;-88
2023/03/12 06:13:12;;;;;;;5.35;3.40;;;1.60;99.90;;;;;;5090286;28;20981;-88
2023/03/12 06:15:37;;;;;;;6.88;3.50;;;1.80;99.90;;;;;;5090091;28;20409;-88
2023/03/12 06:18:03;;;;;;;5.17;3.50;;;1.60;99.90;;;;;;5074024;28;20468;-88
2023/03/12 06:20:29;;;;;;;8.00;3.67;;;1.60;99.90;;;;;;5089828;28;20908;-90
2023/03/12 06:22:54;;;;;;;6.30;3.80;;;1.70;99.90;;;;;;5082846;28;20485;-87
2023/03/12 06:25:20;;;;;;;6.68;3.85;;;1.70;99.90;;;;;;5088283;28;20410;-87
2023/03/12 06:27:46;;;;;;;7.57;3.80;;;1.60;99.90;;;;;;5073184;28;20409;-88
2023/03/12 06:30:12;;;;;;;6.97;3.78;;;1.70;99.90;;;;;;5080823;28;20465;-88
2023/03/12 06:32:37;;;;;;;6.75;3.70;;;1.70;99.90;;;;;;5071597;28;20425;-88
2023/03/12 06:35:04;;;;;;;5.37;3.97;;;1.70;99.90;;;;;;5086140;28;20930;-88
2023/03/12 06:37:30;;;;;;;7.83;4.07;;;1.70;99.90;;;;;;5068308;28;20473;-87
2023/03/12 06:39:56;;;;;;;8.40;3.90;;;1.70;99.90;;;;;;5076612;28;20538;-85
2023/03/12 06:42:22;;;;;;;6.33;3.57;;;1.70;99.90;;;;;;5069336;28;20566;-88
2023/03/12 06:44:49;;;;;;;9.52;3.78;;;1.70;99.90;;;;;;5069976;28;20460;-87
2023/03/12 06:47:14;;;;;;;7.18;4.03;;;1.80;99.90;;;;;;5083480;28;20402;-88
2023/03/12 06:49:40;;;;;;;6.43;3.67;;;1.90;99.90;;;;;;5098240;28;20421;-88
2023/03/12 06:52:06;;;;;;;9.55;4.28;;;1.80;99.90;;;;;;5070450;28;20418;-87
2023/03/12 06:54:31;;;;;;;7.43;4.47;;;1.80;99.90;;;;;;5069415;28;20493;-88
2023/03/12 06:56:58;;;;;;;7.97;4.53;;;1.80;99.90;;;;;;5070562;28;20408;-88
2023/03/12 06:59:24;;;;;;;7.10;4.80;;;1.80;99.90;;;;;;5092511;28;20392;-88
2023/03/12 07:01:50;;;;;;;9.45;5.40;;;1.80;99.90;;;;;;5090588;28;20431;-87
2023/03/12 07:04:16;;;;;;;8.13;5.90;;;1.90;99.90;;;;;;5096602;28;20410;-88
2023/03/12 07:06:43;;;;;;;11.65;7.00;;;1.80;99.90;;;;;;5069326;28;20987;-88
2023/03/12 07:09:09;;;;;;;8.67;6.57;;;1.60;99.90;;;;;;5070052;28;20450;-89
2023/03/12 07:11:34;;;;;;;10.13;7.47;;;1.60;99.90;;;;;;5069029;28;20449;-89
2023/03/12 07:14:03;;;;;;;9.80;7.90;;;1.60;99.90;;;;;;5069900;28;21244;-89
2023/03/12 07:16:29;;;;;;;10.40;8.35;;;1.50;99.90;;;;;;5086567;28;20441;-88
2023/03/12 07:18:55;;;;;;;11.73;9.27;;;1.50;99.90;;;;;;5071473;28;20406;-89
2023/03/12 07:21:22;;;;;;;11.73;9.50;;;1.50;99.90;;;;;;5076586;28;20413;-89
2023/03/12 07:23:49;;;;;;;15.57;11.15;;;1.40;99.90;;;;;;5085024;28;20938;-90
2023/03/12 07:26:15;;;;;;;17.23;14.05;;;1.60;99.90;;;;;;5087731;28;20404;-90
2023/03/12 07:28:40;;;;;;;16.13;13.38;;;1.40;99.90;;;;;;5093178;28;20857;-89
2023/03/12 07:31:06;;;;;;;18.05;13.43;;;1.50;99.90;;;;;;5075411;28;20462;-91
2023/03/12 07:33:33;;;;;;;17.38;14.68;;;1.40;99.90;;;;;;5069847;28;20436;-90
2023/03/12 07:35:58;;;;;;;16.75;14.45;;;1.70;99.90;;;;;;5074149;28;20414;-89
2023/03/12 07:38:25;;;;;;;19.55;15.77;;;1.40;99.90;;;;;;5082475;28;20978;-91
2023/03/12 07:40:55;;;;;;;21.52;16.33;;;1.40;99.90;;;;;;5085079;28;20418;-90
2023/03/12 07:43:23;;;;;;;18.83;15.35;;;1.50;99.90;;;;;;5079627;28;20403;-89
2023/03/12 07:45:50;;;;;;;20.20;15.97;;;1.50;99.90;;;;;;5074972;28;20398;-90
2023/03/12 07:48:18;;;;;;;23.70;17.85;;;1.50;99.90;;;;;;5079327;28;20436;-91
2023/03/12 07:50:44;;;;;;;21.83;17.25;;;1.50;99.90;;;;;;5073083;28;20407;-90
2023/03/12 07:53:10;;;;;;;23.37;17.70;;;1.50;99.90;;;;;;5089728;28;20396;-91
2023/03/12 07:55:36;;;;;;;25.07;18.20;;;1.70;99.90;;;;;;5085537;28;20397;-91
2023/03/12 07:58:01;;;;;;;22.13;17.43;;;1.50;99.90;;;;;;5093444;28;20439;-91
2023/03/12 08:00:28;;;;;;;22.23;17.13;;;1.70;99.90;;;;;;5088837;28;20402;-91
2023/03/12 08:02:54;;;;;;;22.13;17.67;;;1.60;99.90;;;;;;5086700;28;20409;-92
2023/03/12 08:05:23;;;;;;;24.73;18.10;;;1.90;99.90;;;;;;5069497;28;21202;-91
2023/03/12 08:07:50;;;;;;;23.33;18.50;;;1.50;99.90;;;;;;5077529;28;20927;-91
2023/03/12 08:10:17;;;;;;;20.23;17.33;;;1.60;99.90;;;;;;5073426;28;20409;-92
2023/03/12 08:12:42;;;;;;;21.52;17.52;;;1.60;99.90;;;;;;5068265;28;20904;-90
2023/03/12 08:15:09;;;;;;;23.27;18.08;;;1.70;99.90;;;;;;5073591;28;20413;-92
2023/03/12 08:17:35;;;;;;;22.35;17.30;;;1.60;99.90;;;;;;5068616;28;20436;-91
2023/03/12 08:20:01;;;;;;;17.73;15.70;;;1.70;99.90;;;;;;5069685;28;20402;-92
2023/03/12 08:22:26;;;;;;;23.08;17.75;;;1.70;99.90;;;;;;5086574;28;20508;-93
2023/03/12 08:24:52;;;;;;;20.53;16.87;;;1.70;99.90;;;;;;5069348;28;20395;-92
2023/03/12 08:27:18;;;;;;;22.03;17.57;;;1.80;99.90;;;;;;5068990;28;20501;-92
2023/03/12 08:29:43;;;;;;;23.25;16.98;;;1.80;99.90;;;;;;5068257;28;20429;-90
2023/03/12 08:32:09;;;;;;;22.20;18.02;;;1.80;99.90;;;;;;5085943;28;20386;-92
2023/03/12 08:34:38;;;;;;;20.20;18.05;;;2.00;99.90;;;;;;5068104;28;20434;-90
2023/03/12 08:37:04;;;;;;;28.40;21.38;;;1.80;99.90;;;;;;5069379;28;20410;-92
2023/03/12 08:39:31;;;;;;;25.37;20.93;;;1.90;99.90;;;;;;5069021;28;20441;-92
2023/03/12 08:41:57;;;;;;;28.63;21.52;;;1.90;99.90;;;;;;5068884;28;20800;-92
2023/03/12 08:44:23;;;;;;;24.52;20.85;;;1.90;99.90;;;;;;5068922;28;20879;-91
2023/03/12 08:46:51;;;;;;;30.63;22.55;;;1.90;99.90;;;;;;5067625;28;20405;-93
2023/03/12 08:49:17;;;;;;;28.70;23.98;;;1.90;99.90;;;;;;5069052;28;20509;-91
2023/03/12 08:51:43;;;;;;;27.65;22.73;;;1.90;99.90;;;;;;5082190;28;20436;-88
2023/03/12 08:54:09;;;;;;;31.50;26.45;;;2.00;99.90;;;;;;5077762;28;20446;-90
2023/03/12 08:56:37;;;;;;;32.90;27.45;;;1.80;99.90;;;;;;5067187;28;20481;-90
2023/03/12 08:59:03;;;;;;;35.25;29.25;;;1.80;99.90;;;;;;5068875;28;20409;-91
2023/03/12 09:01:28;;;;;;;35.92;28.70;;;1.80;99.90;;;;;;5068936;28;20773;-88
2023/03/12 09:03:54;;;;;;;35.40;30.63;;;1.70;99.90;;;;;;5068276;28;20406;-89
2023/03/12 09:06:20;;;;;;;34.90;30.95;;;1.70;99.90;;;;;;5068461;28;20942;-90
2023/03/12 09:08:48;;;;;;;36.50;31.73;;;1.80;99.90;;;;;;5067278;28;20430;-92
2023/03/12 09:11:14;;;;;;;36.90;31.73;;;1.80;99.90;;;;;;5069349;28;20749;-91
2023/03/12 09:13:42;;;;;;;31.02;27.73;;;1.80;99.90;;;;;;5067572;28;20409;-91
2023/03/12 09:16:08;;;;;;;34.72;29.98;;;1.80;99.90;;;;;;5070842;28;20394;-90
2023/03/12 09:18:34;;;;;;;32.90;28.35;;;1.80;99.90;;;;;;5086546;28;20935;-90
2023/03/12 09:21:01;;;;;;;29.55;26.38;;;1.80;99.90;;;;;;5064701;28;20394;-89
2023/03/12 09:23:28;;;;;;;28.70;25.77;;;2.00;99.90;;;;;;5093402;28;20410;-91
2023/03/12 09:25:54;;;;;;;32.70;28.25;;;1.90;99.90;;;;;;5088627;28;20435;-93
2023/03/12 09:28:20;;;;;;;33.83;29.63;;;1.70;99.90;;;;;;5085407;28;20859;-91
2023/03/12 09:30:46;;;;;;;28.13;24.52;;;1.90;99.90;;;;;;5092656;28;20490;-92
2023/03/12 09:33:14;;;;;;;27.58;24.45;;;2.00;99.90;;;;;;5085806;28;20404;-91
2023/03/12 09:35:40;;;;;;;27.17;23.13;;;2.00;99.90;;;;;;5101110;28;20485;-92
2023/03/12 09:38:06;;;;;;;24.52;21.80;;;2.00;99.90;;;;;;5074477;28;20430;-90
2023/03/12 09:40:36;;;;;;;24.35;21.85;;;2.10;99.90;;;;;;5077331;28;20402;-91
2023/03/12 09:43:35;;;;;;;24.42;21.63;;;2.10;99.90;;;;;;5080950;28;20444;-89
2023/03/12 09:46:03;;;;;;;23.58;20.92;;;2.10;99.90;;;;;;5076176;28;20404;-91
2023/03/12 09:48:34;;;;;;;23.60;20.70;;;2.10;99.90;;;;;;5105028;28;20590;-89
2023/03/12 09:51:04;;;;;;;26.27;23.48;;;2.20;99.90;;;;;;5073511;28;20441;-91
2023/03/12 09:53:47;;;;;;;27.67;22.88;;;2.30;99.90;;;;;;5087281;28;21079;-90
2023/03/12 09:56:18;;;;;;;26.08;22.17;;;2.20;99.90;;;;;;5081587;28;20404;-89
2023/03/12 09:58:49;;;;;;;26.80;23.83;;;2.20;99.90;;;;;;5085711;28;20479;-91
2023/03/12 10:01:36;;;;;;;27.00;22.58;;;2.30;99.90;;;;;;5069946;28;20493;-90
2023/03/12 10:04:16;;;;;;;26.38;22.58;;;2.30;99.90;;;;;;5068570;28;20421;-90
2023/03/12 10:06:53;;;;;;;27.27;23.75;;;2.40;99.90;;;;;;5081912;28;20455;-89
2023/03/12 10:09:24;;;;;;;25.27;22.50;;;2.40;99.90;;;;;;5068684;28;20422;-91
2023/03/12 10:11:59;;;;;;;25.17;22.58;;;2.40;99.90;;;;;;5078784;28;20406;-90
2023/03/12 10:14:31;;;;;;;26.75;22.60;;;2.50;99.90;;;;;;5077501;28;20408;-91
2023/03/12 10:17:26;;;;;;;25.42;22.00;;;2.50;99.90;;;;;;5090675;28;20402;-89
2023/03/12 10:20:17;;;;;;;25.50;22.33;;;2.50;99.90;;;;;;5081836;28;20907;-90
2023/03/12 10:23:06;;;;;;;27.50;22.88;;;2.60;99.90;;;;;;5091062;28;20408;-90
2023/03/12 10:25:44;;;;;;;27.60;21.88;;;2.60;99.90;;;;;;5071815;28;20409;-91
2023/03/12 10:28:20;;;;;;;25.58;20.80;;;2.70;99.90;;;;;;5079886;28;20483;-90
2023/03/12 10:30:54;;;;;;;29.17;23.50;;;2.70;99.90;;;;;;5070775;28;20453;-91
2023/03/12 10:33:22;;;;;;;29.13;22.83;;;2.80;99.90;;;;;;5071614;28;20459;-89
2023/03/12 10:35:48;;;;;;;27.98;23.38;;;2.80;99.90;;;;;;5075038;28;20414;-89
2023/03/12 10:38:26;;;;;;;26.73;22.85;;;2.90;99.90;;;;;;5072207;28;20527;-91
2023/03/12 10:40:52;;;;;;;27.65;22.75;;;3.00;99.90;;;;;;5087990;28;20907;-89
2023/03/12 10:43:17;;;;;;;28.93;23.80;;;3.10;99.90;;;;;;5071919;28;20414;-91
2023/03/12 10:46:08;;;;;;;27.53;22.47;;;3.20;99.90;;;;;;5071454;28;20386;-91
2023/03/12 10:48:33;;;;;;;26.95;23.42;;;3.30;99.90;;;;;;5070262;28;20422;-90
2023/03/12 10:51:10;;;;;;;27.90;23.10;;;3.30;99.90;;;;;;5085695;28;20520;-91
2023/03/12 10:53:43;;;;;;;29.52;24.10;;;3.40;99.90;;;;;;5070502;28;20499;-88
2023/03/12 10:56:19;;;;;;;32.43;24.17;;;3.50;99.90;;;;;;5075164;28;20410;-89
2023/03/12 10:58:50;;;;;;;32.60;24.60;;;3.50;99.90;;;;;;5071419;28;20412;-89
2023/03/12 11:01:21;;;;;;;35.00;26.63;;;3.60;99.90;;;;;;5072124;28;20406;-91
2023/03/12 11:03:48;;;;;;;39.47;28.13;;;3.70;99.90;;;;;;5077953;28;20429;-90
2023/03/12 11:06:25;;;;;;;32.30;24.40;;;3.80;99.90;;;;;;5069919;28;20397;-89
2023/03/12 11:09:16;;;;;;;35.90;25.92;;;3.90;99.90;;;;;;5077703;28;20428;-90
2023/03/12 11:11:46;;;;;;;42.92;29.55;;;4.00;99.90;;;;;;5103530;28;21674;-91
2023/03/12 11:14:24;;;;;;;32.72;25.05;;;4.00;99.90;;;;;;5076889;28;20394;-89
2023/03/12 11:16:51;;;;;;;31.90;24.92;;;4.20;99.90;;;;;;5070623;28;20413;-90
2023/03/12 11:19:34;;;;;;;34.08;25.52;;;4.30;99.90;;;;;;5069351;28;20488;-90
2023/03/12 11:22:04;;;;;;;38.55;27.50;;;4.40;99.90;;;;;;5069889;28;20459;-91
2023/03/12 11:24:30;;;;;;;38.92;28.00;;;4.40;99.90;;;;;;5069600;28;20845;-89
2023/03/12 11:27:15;;;;;;;34.08;24.95;;;4.60;99.90;;;;;;5101031;28;20790;-90
2023/03/12 11:29:47;;;;;;;37.22;27.25;;;4.70;99.90;;;;;;5070524;28;20817;-90
2023/03/12 11:32:17;;;;;;;36.40;26.90;;;4.80;99.90;;;;;;5094964;28;20760;-91
2023/03/12 11:34:48;;;;;;;39.92;28.00;;;4.80;99.90;;;;;;5086726;28;20412;-91
2023/03/12 11:37:35;;;;;;;36.35;28.02;;;4.90;99.90;;;;;;5070268;28;20493;-91
2023/03/12 11:40:22;;;;;;;42.70;30.10;;;4.90;99.90;;;;;;5072813;28;20416;-91
2023/03/12 11:42:54;;;;;;;40.08;28.42;;;5.00;99.90;;;;;;5070145;28;20776;-90
2023/03/12 11:45:30;;;;;;;37.80;27.52;;;5.10;99.90;;;;;;5103194;28;20445;-93
2023/03/12 11:48:26;;;;;;;37.97;27.77;;;5.20;99.90;;;;;;5090103;28;20473;-89
2023/03/12 11:51:29;;;;;;;38.28;28.30;;;5.30;99.90;;;;;;5090070;28;20484;-91
2023/03/12 11:54:01;;;;;;;41.88;28.83;;;5.40;99.90;;;;;;5070639;28;20906;-91
2023/03/12 11:56:39;;;;;;;40.88;29.30;;;5.40;99.90;;;;;;5078956;28;20414;-91
2023/03/12 11:59:27;;;;;;;40.37;28.37;;;5.40;99.90;;;;;;5086320;28;20433;-90
2023/03/12 12:02:00;;;;;;;44.80;30.25;;;5.40;99.90;;;;;;5072818;28;20475;-92
2023/03/12 12:04:47;;;;;;;43.10;29.10;;;5.50;99.90;;;;;;5086626;28;20410;-90
2023/03/12 12:07:47;;;;;;;42.43;27.97;;;5.60;99.90;;;;;;5067374;28;20410;-90
2023/03/12 12:10:26;;;;;;;51.53;31.73;;;5.70;99.90;;;;;;5063492;28;20454;-92
2023/03/12 12:13:22;;;;;;;53.08;32.40;;;5.70;99.90;;;;;;5070552;28;20402;-90
2023/03/12 12:16:01;;;;;;;56.30;32.72;;;5.80;99.90;;;;;;5069452;28;20455;-90
2023/03/12 12:18:39;;;;;;;49.47;31.13;;;6.00;99.90;;;;;;5069555;28;20409;-91
2023/03/12 12:21:20;;;;;;;51.10;31.77;;;6.00;99.90;;;;;;5070060;28;20420;-90
2023/03/12 12:24:01;;;;;;;49.45;31.33;;;6.10;99.90;;;;;;5069181;28;20406;-89
2023/03/12 12:26:53;;;;;;;52.58;31.52;;;6.30;99.90;;;;;;5069865;28;20399;-92
2023/03/12 12:29:25;;;;;;;50.13;30.17;;;6.40;99.90;;;;;;5069041;28;20792;-90
2023/03/12 12:31:55;;;;;;;56.45;31.48;;;6.70;99.90;;;;;;5068850;28;20421;-92
2023/03/12 12:34:46;;;;;;;57.08;32.05;;;6.60;99.90;;;;;;5069409;28;20405;-90
2023/03/12 12:37:26;;;;;;;55.17;29.85;;;6.80;99.90;;;;;;5085905;28;20916;-90
2023/03/12 12:40:25;;;;;;;61.15;30.88;;;7.00;99.90;;;;;;5086494;28;20440;-92
2023/03/12 12:42:57;;;;;;;53.43;26.80;;;7.20;99.90;;;;;;5086890;28;20410;-90
2023/03/12 12:45:25;;;;;;;53.83;27.23;;;7.30;99.90;;;;;;5085603;28;20447;-89
2023/03/12 12:48:05;;;;;;;57.97;26.58;;;7.30;99.90;;;;;;5069426;28;20497;-90
2023/03/12 12:50:35;;;;;;;43.25;20.55;;;7.50;99.90;;;;;;5068819;28;20410;-91
2023/03/12 12:53:12;;;;;;;49.10;21.80;;;7.60;99.90;;;;;;5086590;28;20405;-90
2023/03/12 12:55:49;;;;;;;40.78;17.65;;;7.90;99.90;;;;;;5069144;28;20413;-91
2023/03/12 12:58:22;;;;;;;53.50;19.95;;;7.90;99.90;;;;;;5068579;28;20408;-90